createdAt,value
2018-07-11T00:00:34.564Z,16
2018-07-11T00:01:35.716Z,16
2018-07-11T00:02:36.849Z,16
2018-07-11T00:03:38.020Z,16
2018-07-11T00:04:39.181Z,16
2018-07-11T00:05:40.389Z,15.9
2018-07-11T00:06:41.542Z,15.9
2018-07-11T00:07:42.689Z,16
2018-07-11T00:08:43.876Z,16
2018-07-11T00:09:45.010Z,16
2018-07-11T00:10:46.426Z,16.1
2018-07-11T00:11:47.550Z,16
2018-07-11T00:12:48.679Z,15.9
2018-07-11T00:13:49.850Z,16
2018-07-11T00:14:51.040Z,16
2018-07-11T00:15:52.222Z,16
2018-07-11T00:16:53.373Z,15.9
2018-07-11T00:17:54.529Z,16.1
2018-07-11T00:18:55.673Z,16
2018-07-11T00:19:56.804Z,16
2018-07-11T00:20:57.961Z,16
2018-07-11T00:21:59.093Z,16
2018-07-11T00:23:00.222Z,16.1
2018-07-11T00:24:01.393Z,16
2018-07-11T00:25:02.570Z,16
2018-07-11T00:26:03.926Z,15.9
2018-07-11T00:27:05.283Z,16
2018-07-11T00:28:07.142Z,16
2018-07-11T00:29:08.943Z,16
2018-07-11T00:30:10.099Z,15.9
2018-07-11T00:31:11.283Z,16
2018-07-11T00:32:12.429Z,16
2018-07-11T00:33:13.613Z,16
2018-07-11T00:34:14.782Z,16
2018-07-11T00:35:15.923Z,15.9
2018-07-11T00:36:17.099Z,15.9
2018-07-11T00:37:18.370Z,16
2018-07-11T00:38:19.461Z,15.9
2018-07-11T00:39:20.597Z,16
2018-07-11T00:40:21.730Z,16
2018-07-11T00:41:23.175Z,16
2018-07-11T00:42:24.313Z,15.9
2018-07-11T00:43:25.917Z,15.9
2018-07-11T00:44:27.062Z,15.9
2018-07-11T00:45:28.204Z,15.9
2018-07-11T00:46:29.378Z,15.8
2018-07-11T00:47:30.546Z,16
2018-07-11T00:48:31.692Z,16
2018-07-11T00:49:32.836Z,15.8
2018-07-11T00:50:33.969Z,15.8
2018-07-11T00:51:35.133Z,15.9
2018-07-11T00:52:36.289Z,16
2018-07-11T00:53:37.413Z,15.9
2018-07-11T00:54:38.549Z,15.8
2018-07-11T00:55:39.706Z,15.9
2018-07-11T00:56:40.994Z,15.9
2018-07-11T00:57:42.178Z,15.9
2018-07-11T00:58:43.337Z,15.8
2018-07-11T00:59:44.472Z,15.8
2018-07-11T01:00:45.618Z,15.8
2018-07-11T01:01:46.830Z,15.9
2018-07-11T01:02:47.983Z,15.8
2018-07-11T01:03:49.130Z,15.8
2018-07-11T01:04:50.286Z,15.7
2018-07-11T01:05:51.427Z,15.8
2018-07-11T01:06:52.656Z,15.7
2018-07-11T01:07:53.786Z,15.7
2018-07-11T01:08:54.938Z,15.7
2018-07-11T01:09:56.078Z,15.8
2018-07-11T01:10:57.217Z,15.7
2018-07-11T01:11:58.642Z,15.7
2018-07-11T01:12:59.786Z,15.7
2018-07-11T01:14:00.982Z,15.7
2018-07-11T01:15:02.104Z,15.7
2018-07-11T01:16:03.291Z,15.7
2018-07-11T01:17:04.501Z,15.7
2018-07-11T01:18:05.654Z,15.8
2018-07-11T01:19:06.797Z,15.7
2018-07-11T01:20:07.953Z,15.8
2018-07-11T01:21:09.085Z,15.7
2018-07-11T01:22:10.273Z,15.8
2018-07-11T01:23:11.431Z,15.8
2018-07-11T01:24:12.590Z,15.7
2018-07-11T01:25:13.793Z,15.6
2018-07-11T01:26:14.933Z,15.7
2018-07-11T01:27:16.344Z,15.7
2018-07-11T01:28:17.477Z,15.7
2018-07-11T01:29:18.650Z,15.7
2018-07-11T01:30:19.808Z,15.6
2018-07-11T01:31:20.954Z,15.8
2018-07-11T01:32:22.108Z,15.8
2018-07-11T01:33:23.302Z,15.7
2018-07-11T01:34:24.441Z,15.8
2018-07-11T01:35:25.881Z,15.8
2018-07-11T01:36:27.035Z,15.8
2018-07-11T01:37:28.207Z,15.9
2018-07-11T01:38:29.338Z,15.8
2018-07-11T01:39:30.505Z,15.7
2018-07-11T01:40:31.690Z,15.8
2018-07-11T01:41:32.817Z,15.8
2018-07-11T01:42:34.974Z,15.8
2018-07-11T01:43:36.132Z,15.7
2018-07-11T01:44:37.294Z,15.7
2018-07-11T01:45:38.438Z,15.7
2018-07-11T01:46:39.574Z,15.6
2018-07-11T01:47:40.769Z,15.6
2018-07-11T01:48:41.933Z,15.7
2018-07-11T01:49:43.078Z,15.7
2018-07-11T01:50:44.215Z,15.7
2018-07-11T01:51:45.347Z,15.6
2018-07-11T01:52:46.544Z,15.8
2018-07-11T01:53:47.683Z,15.6
2018-07-11T01:54:48.867Z,15.7
2018-07-11T01:55:50.092Z,15.6
2018-07-11T01:56:51.309Z,15.6
2018-07-11T01:57:52.505Z,15.6
2018-07-11T01:58:53.690Z,15.6
2018-07-11T01:59:54.876Z,15.6
2018-07-11T02:00:56.024Z,15.6
2018-07-11T02:01:57.155Z,15.6
2018-07-11T02:02:58.346Z,15.6
2018-07-11T02:03:59.468Z,15.6
2018-07-11T02:05:00.622Z,15.6
2018-07-11T02:06:01.824Z,15.6
2018-07-11T02:07:03.005Z,15.6
2018-07-11T02:08:04.162Z,15.6
2018-07-11T02:09:05.338Z,15.6
2018-07-11T02:10:06.513Z,15.5
2018-07-11T02:11:07.636Z,15.6
2018-07-11T02:12:08.761Z,15.6
2018-07-11T02:13:10.113Z,15.6
2018-07-11T02:14:11.305Z,15.6
2018-07-11T02:15:12.457Z,15.6
2018-07-11T02:16:13.644Z,15.6
2018-07-11T02:17:14.821Z,15.6
2018-07-11T02:18:16.082Z,15.5
2018-07-11T02:19:17.243Z,15.6
2018-07-11T02:20:18.365Z,15.6
2018-07-11T02:21:19.533Z,15.5
2018-07-11T02:22:20.680Z,15.5
2018-07-11T02:23:21.877Z,15.5
2018-07-11T02:24:23.076Z,15.6
2018-07-11T02:25:24.215Z,15.6
2018-07-11T02:26:25.366Z,15.6
2018-07-11T02:27:26.827Z,15.6
2018-07-11T02:28:28.038Z,15.6
2018-07-11T02:29:29.170Z,15.7
2018-07-11T02:30:30.305Z,15.7
2018-07-11T02:31:31.447Z,15.6
2018-07-11T02:32:32.578Z,15.6
2018-07-11T02:33:33.778Z,15.7
2018-07-11T02:34:34.915Z,15.5
2018-07-11T02:35:36.053Z,15.6
2018-07-11T02:36:37.260Z,15.5
2018-07-11T02:37:38.435Z,15.6
2018-07-11T02:38:39.615Z,15.5
2018-07-11T02:39:40.797Z,15.6
2018-07-11T02:40:41.945Z,15.5
2018-07-11T02:41:43.082Z,15.5
2018-07-11T02:42:44.262Z,15.5
2018-07-11T02:43:45.519Z,15.4
2018-07-11T02:44:46.733Z,15.5
2018-07-11T02:45:47.921Z,15.4
2018-07-11T02:46:49.066Z,15.4
2018-07-11T02:47:50.219Z,15.4
2018-07-11T02:48:51.385Z,15.4
2018-07-11T02:49:52.589Z,15.4
2018-07-11T02:50:53.801Z,15.4
2018-07-11T02:51:54.946Z,15.4
2018-07-11T02:52:56.095Z,15.3
2018-07-11T02:53:57.281Z,15.4
2018-07-11T02:54:58.448Z,15.4
2018-07-11T02:55:59.601Z,15.4
2018-07-11T02:57:00.778Z,15.4
2018-07-11T02:58:01.937Z,15.4
2018-07-11T02:59:03.200Z,15.3
2018-07-11T03:00:04.349Z,15.4
2018-07-11T03:01:05.494Z,15.2
2018-07-11T03:02:06.669Z,15.3
2018-07-11T03:03:07.817Z,15.3
2018-07-11T03:04:09.021Z,15.3
2018-07-11T03:05:10.196Z,15.3
2018-07-11T03:06:11.333Z,15.3
2018-07-11T03:07:12.473Z,15.3
2018-07-11T03:08:13.618Z,15.3
2018-07-11T03:09:14.804Z,15.3
2018-07-11T03:10:15.988Z,15.3
2018-07-11T03:11:17.125Z,15.2
2018-07-11T03:12:18.269Z,15.1
2018-07-11T03:13:19.492Z,15.2
2018-07-11T03:14:20.686Z,15.2
2018-07-11T03:15:21.850Z,15.2
2018-07-11T03:16:23.012Z,15.2
2018-07-11T03:17:24.163Z,15.1
2018-07-11T03:18:25.314Z,15.2
2018-07-11T03:19:26.504Z,15.2
2018-07-11T03:20:27.634Z,15.2
2018-07-11T03:21:28.766Z,15.2
2018-07-11T03:22:29.933Z,15.2
2018-07-11T03:23:31.074Z,15.2
2018-07-11T03:24:32.253Z,15.2
2018-07-11T03:25:33.432Z,15.1
2018-07-11T03:26:34.582Z,15.2
2018-07-11T03:27:35.714Z,15.2
2018-07-11T03:28:36.874Z,15.2
2018-07-11T03:29:38.064Z,15.2
2018-07-11T03:30:39.198Z,15.2
2018-07-11T03:31:40.348Z,15.2
2018-07-11T03:32:41.494Z,15.2
2018-07-11T03:33:42.622Z,15.2
2018-07-11T03:34:44.224Z,15.2
2018-07-11T03:35:45.358Z,15.2
2018-07-11T03:36:46.493Z,15.2
2018-07-11T03:37:47.661Z,15.2
2018-07-11T03:38:48.813Z,15.2
2018-07-11T03:39:49.977Z,15.2
2018-07-11T03:40:51.126Z,15.2
2018-07-11T03:41:52.274Z,15.1
2018-07-11T03:42:53.434Z,15.2
2018-07-11T03:43:54.572Z,15.3
2018-07-11T03:44:56.004Z,15.3
2018-07-11T03:45:57.158Z,15.3
2018-07-11T03:46:58.301Z,15.3
2018-07-11T03:47:59.457Z,15.3
2018-07-11T03:49:00.596Z,15.3
2018-07-11T03:50:01.794Z,15.2
2018-07-11T03:51:02.964Z,15.2
2018-07-11T03:52:04.149Z,15.2
2018-07-11T03:53:05.288Z,15.3
2018-07-11T03:54:06.451Z,15.3
2018-07-11T03:55:07.636Z,15.3
2018-07-11T03:56:08.797Z,15.3
2018-07-11T03:57:09.946Z,15.4
2018-07-11T03:58:11.103Z,15.4
2018-07-11T03:59:12.254Z,15.3
2018-07-11T04:00:13.466Z,15.4
2018-07-11T04:01:14.650Z,15.5
2018-07-11T04:02:16.068Z,15.4
2018-07-11T04:03:17.413Z,15.4
2018-07-11T04:04:18.561Z,15.5
2018-07-11T04:05:19.747Z,15.4
2018-07-11T04:06:20.928Z,15.3
2018-07-11T04:07:22.091Z,15.4
2018-07-11T04:08:23.266Z,15.5
2018-07-11T04:09:24.403Z,15.5
2018-07-11T04:10:25.573Z,15.5
2018-07-11T04:11:26.706Z,15.5
2018-07-11T04:12:27.837Z,15.5
2018-07-11T04:13:29.059Z,15.4
2018-07-11T04:14:30.224Z,15.5
2018-07-11T04:15:31.582Z,15.5
2018-07-11T04:16:32.876Z,15.5
2018-07-11T04:17:34.993Z,15.5
2018-07-11T04:18:36.138Z,15.5
2018-07-11T04:19:37.283Z,15.5
2018-07-11T04:20:38.460Z,15.6
2018-07-11T04:21:39.610Z,15.5
2018-07-11T04:22:40.746Z,15.6
2018-07-11T04:23:41.880Z,15.5
2018-07-11T04:24:43.036Z,15.6
2018-07-11T04:25:44.222Z,15.5
2018-07-11T04:26:45.373Z,15.5
2018-07-11T04:27:46.541Z,15.6
2018-07-11T04:28:47.747Z,15.6
2018-07-11T04:29:48.850Z,15.6
2018-07-11T04:30:50.222Z,15.6
2018-07-11T04:31:51.680Z,15.6
2018-07-11T04:32:52.821Z,15.5
2018-07-11T04:33:54.007Z,15.6
2018-07-11T04:34:55.142Z,15.7
2018-07-11T04:35:56.325Z,15.9
2018-07-11T04:36:57.483Z,15.9
2018-07-11T04:37:58.641Z,15.8
2018-07-11T04:38:59.778Z,15.8
2018-07-11T04:40:00.922Z,15.7
2018-07-11T04:41:02.091Z,15.7
2018-07-11T04:42:03.235Z,15.6
2018-07-11T04:43:04.379Z,15.7
2018-07-11T04:44:05.640Z,15.8
2018-07-11T04:45:06.890Z,15.9
2018-07-11T04:46:08.352Z,15.9
2018-07-11T04:47:09.490Z,15.9
2018-07-11T04:48:10.627Z,15.9
2018-07-11T04:49:11.815Z,16
2018-07-11T04:50:13.012Z,15.9
2018-07-11T04:51:14.232Z,16
2018-07-11T04:52:15.410Z,16.1
2018-07-11T04:53:16.584Z,16.2
2018-07-11T04:54:17.741Z,16.2
2018-07-11T04:55:18.901Z,16.1
2018-07-11T04:56:20.081Z,16.1
2018-07-11T04:57:22.201Z,16.2
2018-07-11T04:58:23.595Z,16.3
2018-07-11T04:59:24.809Z,16.4
2018-07-11T05:00:25.950Z,16.5
2018-07-11T05:01:27.173Z,16.6
2018-07-11T05:02:28.335Z,16.7
2018-07-11T05:03:29.468Z,16.7
2018-07-11T05:04:30.634Z,16.9
2018-07-11T05:05:31.786Z,16.9
2018-07-11T05:06:32.993Z,17
2018-07-11T05:07:34.190Z,17.1
2018-07-11T05:08:35.361Z,17.5
2018-07-11T05:09:36.516Z,17.7
2018-07-11T05:10:37.666Z,17.8
2018-07-11T05:11:38.838Z,17.9
2018-07-11T05:12:39.974Z,18.2
2018-07-11T05:13:41.146Z,18.5
2018-07-11T05:14:42.285Z,18.7
2018-07-11T05:15:43.452Z,18.9
2018-07-11T05:16:44.701Z,19
2018-07-11T05:17:45.834Z,19.1
2018-07-11T05:18:46.966Z,19.2
2018-07-11T05:19:48.101Z,19.5
2018-07-11T05:20:49.273Z,19.9
2018-07-11T05:21:50.449Z,20.3
2018-07-11T05:22:51.601Z,20.5
2018-07-11T05:23:52.754Z,20.7
2018-07-11T05:24:53.947Z,20.7
2018-07-11T05:25:55.088Z,21.1
2018-07-11T05:26:56.269Z,21.3
2018-07-11T05:27:57.418Z,21.5
2018-07-11T05:28:58.978Z,21.3
2018-07-11T05:30:00.119Z,21.7
2018-07-11T05:31:01.307Z,22
2018-07-11T05:32:02.487Z,22
2018-07-11T05:33:03.661Z,22.3
2018-07-11T05:34:04.870Z,21.7
2018-07-11T05:35:05.994Z,21.8
2018-07-11T05:36:07.137Z,22.2
2018-07-11T05:37:08.316Z,22.6
2018-07-11T05:38:09.605Z,22.5
2018-07-11T05:39:11.918Z,22.5
2018-07-11T05:40:13.057Z,22.3
2018-07-11T05:41:14.228Z,22
2018-07-11T05:42:15.765Z,21.6
2018-07-11T05:43:17.943Z,21.9
2018-07-11T05:44:22.212Z,21.8
2018-07-11T05:45:23.533Z,21.8
2018-07-11T05:46:24.745Z,22.6
2018-07-11T05:47:26.206Z,23
2018-07-11T05:48:27.367Z,23.1
2018-07-11T05:49:28.548Z,22.9
2018-07-11T05:50:29.708Z,23.1
2018-07-11T05:51:30.878Z,22.8
2018-07-11T05:52:32.063Z,22.1
2018-07-11T05:53:33.215Z,22.1
2018-07-11T05:54:34.431Z,22.9
2018-07-11T05:55:35.619Z,23.3
2018-07-11T05:56:36.749Z,23.6
2018-07-11T05:57:37.921Z,23.7
2018-07-11T05:58:39.072Z,23.6
2018-07-11T05:59:40.225Z,22.6
2018-07-11T06:00:41.442Z,21.9
2018-07-11T06:01:42.618Z,22.9
2018-07-11T06:02:43.918Z,23.2
2018-07-11T06:03:45.039Z,23.6
2018-07-11T06:04:46.186Z,23.2
2018-07-11T06:05:47.377Z,23.3
2018-07-11T06:06:48.554Z,23.5
2018-07-11T06:07:49.732Z,22.9
2018-07-11T06:08:50.954Z,23.2
2018-07-11T06:09:52.135Z,23.8
2018-07-11T06:10:53.270Z,23.3
2018-07-11T06:11:54.478Z,23.4
2018-07-11T06:12:55.666Z,23.4
2018-07-11T06:13:56.809Z,23.1
2018-07-11T06:14:57.971Z,22.8
2018-07-11T06:15:59.117Z,23.6
2018-07-11T06:17:00.263Z,24.7
2018-07-11T06:18:01.721Z,24.8
2018-07-11T06:19:02.946Z,24.5
2018-07-11T06:20:04.423Z,25.3
2018-07-11T06:21:05.594Z,25.3
2018-07-11T06:22:06.769Z,24.9
2018-07-11T06:23:08.061Z,25.3
2018-07-11T06:24:09.210Z,25.3
2018-07-11T06:25:10.364Z,25.3
2018-07-11T06:26:11.496Z,25.9
2018-07-11T06:27:12.666Z,25.8
2018-07-11T06:28:13.850Z,25.5
2018-07-11T06:29:15.010Z,25.4
2018-07-11T06:30:16.190Z,24.9
2018-07-11T06:31:17.422Z,24.4
2018-07-11T06:32:18.597Z,24.1
2018-07-11T06:33:19.853Z,24.3
2018-07-11T06:34:20.974Z,24
2018-07-11T06:35:22.180Z,24.3
2018-07-11T06:36:23.357Z,24.4
2018-07-11T06:37:24.581Z,24.3
2018-07-11T06:38:25.802Z,23.7
2018-07-11T06:39:26.990Z,23.6
2018-07-11T06:40:28.084Z,23.6
2018-07-11T06:41:29.257Z,23.6
2018-07-11T06:42:30.406Z,23.9
2018-07-11T06:43:31.637Z,23.8
2018-07-11T06:44:32.875Z,23.7
2018-07-11T06:45:33.949Z,23.8
2018-07-11T06:46:35.090Z,23.7
2018-07-11T06:47:36.247Z,23.5
2018-07-11T06:48:37.441Z,23.4
2018-07-11T06:49:38.613Z,23.5
2018-07-11T06:50:39.838Z,23.1
2018-07-11T06:51:41.034Z,23.1
2018-07-11T06:52:42.256Z,23.2
2018-07-11T06:53:43.514Z,23.3
2018-07-11T06:54:44.742Z,23.3
2018-07-11T06:55:45.931Z,23.3
2018-07-11T06:56:47.061Z,23
2018-07-11T06:57:48.214Z,23
2018-07-11T06:58:49.402Z,23
2018-07-11T06:59:50.591Z,22.7
2018-07-11T07:00:51.747Z,22.7
2018-07-11T07:01:52.919Z,22.8
2018-07-11T07:02:54.091Z,23
2018-07-11T07:03:55.353Z,22.9
2018-07-11T07:04:56.507Z,23
2018-07-11T07:05:57.697Z,22.9
2018-07-11T07:06:58.864Z,23
2018-07-11T07:08:00.039Z,23
2018-07-11T07:09:01.214Z,23
2018-07-11T07:10:02.388Z,23
2018-07-11T07:11:03.525Z,22.7
2018-07-11T07:12:04.963Z,22.9
2018-07-11T07:13:06.117Z,22.9
2018-07-11T07:14:07.321Z,22.9
2018-07-11T07:15:08.487Z,22.8
2018-07-11T07:16:09.629Z,22.9
2018-07-11T07:17:10.774Z,23
2018-07-11T07:18:11.931Z,23
2018-07-11T07:19:13.157Z,23.1
2018-07-11T07:20:14.333Z,22.9
2018-07-11T07:21:15.471Z,22.8
2018-07-11T07:22:16.665Z,22.8
2018-07-11T07:23:17.824Z,22.7
2018-07-11T07:24:19.028Z,22.6
2018-07-11T07:25:20.205Z,22.6
2018-07-11T07:26:21.355Z,22.6
2018-07-11T07:27:22.555Z,22.5
2018-07-11T07:28:23.747Z,22.5
2018-07-11T07:29:24.999Z,22.4
2018-07-11T07:30:26.150Z,22.6
2018-07-11T07:31:27.359Z,22.6
2018-07-11T07:32:28.526Z,22.6
2018-07-11T07:33:29.672Z,22.5
2018-07-11T07:34:30.877Z,22.4
2018-07-11T07:35:32.040Z,22.3
2018-07-11T07:36:33.249Z,22
2018-07-11T07:37:34.481Z,22.1
2018-07-11T07:38:35.648Z,22.1
2018-07-11T07:39:36.822Z,22.3
2018-07-11T07:40:37.964Z,22.3
2018-07-11T07:41:39.129Z,22.2
2018-07-11T07:42:40.281Z,22.2
2018-07-11T07:43:41.430Z,22.3
2018-07-11T07:44:42.635Z,22.2
2018-07-11T07:45:43.793Z,22.3
2018-07-11T07:46:45.025Z,22.5
2018-07-11T07:47:46.531Z,22.4
2018-07-11T07:48:47.715Z,22.4
2018-07-11T07:49:49.293Z,22.5
2018-07-11T07:50:50.430Z,22.5
2018-07-11T07:51:51.583Z,22.6
2018-07-11T07:52:52.771Z,22.6
2018-07-11T07:53:53.917Z,22.2
2018-07-11T07:54:55.228Z,22.3
2018-07-11T07:55:56.397Z,22.4
2018-07-11T07:56:57.536Z,22
2018-07-11T07:57:58.701Z,21.9
2018-07-11T07:58:59.887Z,21.8
2018-07-11T08:00:03.757Z,22.1
2018-07-11T08:01:04.982Z,22.4
2018-07-11T08:02:06.133Z,22.4
2018-07-11T08:03:07.296Z,22.1
2018-07-11T08:04:08.440Z,22.5
2018-07-11T08:05:09.644Z,22.5
2018-07-11T08:06:10.844Z,22.6
2018-07-11T08:07:12.031Z,22.5
2018-07-11T08:08:13.181Z,22.5
2018-07-11T08:09:14.338Z,22.5
2018-07-11T08:10:15.613Z,22.5
2018-07-11T08:11:16.787Z,22.3
2018-07-11T08:12:17.964Z,22.3
2018-07-11T08:13:19.137Z,22.2
2018-07-11T08:14:20.307Z,22.1
2018-07-11T08:15:21.512Z,22.2
2018-07-11T08:16:22.655Z,22.1
2018-07-11T08:17:23.807Z,22.3
2018-07-11T08:18:25.152Z,22
2018-07-11T08:19:26.372Z,22.1
2018-07-11T08:20:27.917Z,22
2018-07-11T08:21:29.126Z,22
2018-07-11T08:22:30.274Z,22.1
2018-07-11T08:23:31.517Z,22.2
2018-07-11T08:24:32.667Z,22.1
2018-07-11T08:25:33.879Z,22.2
2018-07-11T08:26:35.214Z,22.2
2018-07-11T08:27:36.367Z,22.3
2018-07-11T08:28:37.578Z,22.2
2018-07-11T08:29:38.753Z,22.3
2018-07-11T08:30:40.013Z,22.2
2018-07-11T08:31:41.188Z,22.3
2018-07-11T08:32:42.352Z,22.5
2018-07-11T08:33:43.603Z,22.4
2018-07-11T08:34:45.012Z,22.5
2018-07-11T08:35:46.203Z,22.5
2018-07-11T08:36:47.366Z,22.5
2018-07-11T08:37:48.493Z,22.4
2018-07-11T08:38:49.677Z,22.4
2018-07-11T08:39:50.834Z,22.5
2018-07-11T08:40:52.071Z,22.5
2018-07-11T08:41:53.234Z,22.3
2018-07-11T08:42:55.474Z,22.1
2018-07-11T08:43:57.799Z,22.2
2018-07-11T08:44:58.961Z,22.3
2018-07-11T08:46:00.184Z,22.4
2018-07-11T08:47:01.383Z,22.5
2018-07-11T08:48:02.585Z,22.4
2018-07-11T08:49:03.771Z,22.4
2018-07-11T08:50:04.963Z,22.5
2018-07-11T08:51:06.390Z,22.5
2018-07-11T08:52:07.588Z,22.6
2018-07-11T08:53:08.750Z,22.4
2018-07-11T08:54:09.945Z,22.5
2018-07-11T08:55:11.189Z,22.4
2018-07-11T08:56:12.360Z,22.3
2018-07-11T08:57:13.684Z,22.3
2018-07-11T08:58:15.011Z,22.4
2018-07-11T08:59:16.199Z,22.5
2018-07-11T09:00:17.349Z,22.6
2018-07-11T09:01:18.562Z,22.6
2018-07-11T09:02:19.722Z,22.5
2018-07-11T09:03:20.963Z,22.5
2018-07-11T09:04:22.118Z,22.5
2018-07-11T09:05:23.287Z,22.6
2018-07-11T09:06:24.470Z,22.5
2018-07-11T09:07:25.707Z,22.5
2018-07-11T09:08:26.892Z,22.3
2018-07-11T09:09:28.053Z,22.3
2018-07-11T09:10:29.266Z,22.4
2018-07-11T09:11:30.425Z,22.4
2018-07-11T09:12:31.616Z,22
2018-07-11T09:13:32.775Z,22.3
2018-07-11T09:14:33.924Z,22.6
2018-07-11T09:15:35.102Z,22.8
2018-07-11T09:16:36.362Z,22.8
2018-07-11T09:17:37.546Z,22.8
2018-07-11T09:18:38.682Z,22.6
2018-07-11T09:19:39.858Z,22.7
2018-07-11T09:20:41.052Z,22.7
2018-07-11T09:21:42.661Z,22.6
2018-07-11T09:22:43.822Z,22.5
2018-07-11T09:23:45.039Z,22.7
2018-07-11T09:24:46.226Z,22.5
2018-07-11T09:25:47.359Z,22.4
2018-07-11T09:26:48.543Z,22.6
2018-07-11T09:27:49.694Z,22.7
2018-07-11T09:28:50.845Z,22.7
2018-07-11T09:29:52.036Z,22.7
2018-07-11T09:30:53.227Z,22.8
2018-07-11T09:31:54.441Z,22.9
2018-07-11T09:32:55.649Z,22.9
2018-07-11T09:33:56.998Z,22.8
2018-07-11T09:34:58.234Z,22.9
2018-07-11T09:35:59.380Z,22.5
2018-07-11T09:37:00.629Z,22.6
2018-07-11T09:38:01.806Z,22.3
2018-07-11T09:39:02.966Z,22.5
2018-07-11T09:40:04.139Z,22.7
2018-07-11T09:41:05.301Z,22.6
2018-07-11T09:42:06.496Z,22.8
2018-07-11T09:43:07.731Z,22.7
2018-07-11T09:44:09.344Z,22.8
2018-07-11T09:45:10.554Z,22.9
2018-07-11T09:46:11.794Z,22.8
2018-07-11T09:47:13.072Z,22.9
2018-07-11T09:48:14.258Z,23.1
2018-07-11T09:49:15.576Z,23.1
2018-07-11T09:50:16.756Z,23
2018-07-11T09:51:18.027Z,22.8
2018-07-11T09:52:20.159Z,22.9
2018-07-11T09:53:21.322Z,23
2018-07-11T09:54:22.557Z,23
2018-07-11T09:55:23.726Z,23.1
2018-07-11T09:56:24.866Z,23.1
2018-07-11T09:57:26.170Z,22.9
2018-07-11T09:58:27.355Z,23.1
2018-07-11T09:59:28.573Z,23.2
2018-07-11T10:00:29.746Z,23.3
2018-07-11T10:01:30.894Z,23.3
2018-07-11T10:02:32.109Z,23.2
2018-07-11T10:03:33.246Z,23.3
2018-07-11T10:04:34.411Z,23.3
2018-07-11T10:05:35.988Z,23.2
2018-07-11T10:06:37.127Z,23.3
2018-07-11T10:07:38.401Z,23.4
2018-07-11T10:08:39.610Z,23.4
2018-07-11T10:09:40.845Z,23.3
2018-07-11T10:10:41.990Z,23.3
2018-07-11T10:11:43.161Z,23.4
2018-07-11T10:12:44.364Z,23.4
2018-07-11T10:13:45.629Z,23.5
2018-07-11T10:14:46.776Z,23.5
2018-07-11T10:15:47.933Z,23.5
2018-07-11T10:16:49.268Z,23.5
2018-07-11T10:17:50.625Z,23.7
2018-07-11T10:18:51.765Z,23.6
2018-07-11T10:19:53.226Z,23.5
2018-07-11T10:20:54.662Z,23.5
2018-07-11T10:21:55.905Z,23.6
2018-07-11T10:22:57.273Z,23.7
2018-07-11T10:23:58.432Z,23.6
2018-07-11T10:24:59.585Z,23.7
2018-07-11T10:26:00.739Z,23.7
2018-07-11T10:27:01.952Z,23.8
2018-07-11T10:28:03.278Z,23.9
2018-07-11T10:29:04.784Z,23.9
2018-07-11T10:30:06.013Z,23.9
2018-07-11T10:31:07.176Z,24
2018-07-11T10:32:08.347Z,23.8
2018-07-11T10:33:09.638Z,23.9
2018-07-11T10:34:10.826Z,23.8
2018-07-11T10:35:11.979Z,23.9
2018-07-11T10:36:13.229Z,23.9
2018-07-11T10:37:14.418Z,24.1
2018-07-11T10:38:15.752Z,24.2
2018-07-11T10:39:16.896Z,24.1
2018-07-11T10:40:18.065Z,24
2018-07-11T10:41:19.234Z,24
2018-07-11T10:42:20.413Z,24
2018-07-11T10:43:21.616Z,24
2018-07-11T10:44:24.834Z,23.9
2018-07-11T10:45:26.011Z,24
2018-07-11T10:46:27.151Z,24.1
2018-07-11T10:47:28.316Z,24.1
2018-07-11T10:48:29.603Z,24.1
2018-07-11T10:49:30.801Z,24.1
2018-07-11T10:50:32.007Z,24.1
2018-07-11T10:51:33.131Z,23.9
2018-07-11T10:52:34.288Z,23.8
2018-07-11T10:53:35.527Z,23.8
2018-07-11T10:54:36.978Z,23.8
2018-07-11T10:55:38.177Z,23.9
2018-07-11T10:56:39.334Z,24.2
2018-07-11T10:57:40.579Z,24.3
2018-07-11T10:58:41.710Z,24.3
2018-07-11T10:59:42.869Z,24.1
2018-07-11T11:01:05.025Z,23.9
2018-07-11T11:01:45.213Z,23.6
2018-07-11T11:02:46.453Z,23.6
2018-07-11T11:03:47.736Z,23.6
2018-07-11T11:04:48.923Z,23.7
2018-07-11T11:05:50.038Z,23.8
2018-07-11T11:06:51.225Z,23.7
2018-07-11T11:07:52.401Z,23.8
2018-07-11T11:08:53.633Z,23.8
2018-07-11T11:09:54.816Z,23.5
2018-07-11T11:10:56.066Z,23.7
2018-07-11T11:11:57.236Z,23.8
2018-07-11T11:12:58.412Z,23.9
2018-07-11T11:13:59.610Z,24
2018-07-11T11:15:00.777Z,23.9
2018-07-11T11:16:01.967Z,24
2018-07-11T11:17:03.148Z,23.9
2018-07-11T11:18:04.319Z,23.7
2018-07-11T11:19:05.595Z,23.3
2018-07-11T11:20:06.767Z,23.4
2018-07-11T11:21:07.926Z,23.5
2018-07-11T11:22:09.108Z,23.5
2018-07-11T11:23:10.285Z,23.6
2018-07-11T11:24:11.740Z,23.5
2018-07-11T11:25:12.930Z,23.4
2018-07-11T11:26:14.124Z,23.5
2018-07-11T11:27:15.504Z,23.5
2018-07-11T11:28:16.754Z,23.6
2018-07-11T11:29:17.969Z,23.4
2018-07-11T11:30:19.116Z,23.5
2018-07-11T11:31:20.289Z,23.4
2018-07-11T11:32:21.476Z,23.3
2018-07-11T11:33:22.688Z,23.5
2018-07-11T11:34:23.860Z,23.4
2018-07-11T11:35:25.092Z,23.3
2018-07-11T11:36:26.345Z,23.5
2018-07-11T11:37:27.509Z,23.4
2018-07-11T11:38:28.664Z,23.5
2018-07-11T11:39:30.011Z,23.5
2018-07-11T11:40:31.173Z,23.5
2018-07-11T11:41:32.416Z,23.3
2018-07-11T11:42:33.809Z,23.4
2018-07-11T11:43:34.622Z,23.6
2018-07-11T11:44:35.833Z,23.3
2018-07-11T11:45:36.969Z,23.5
2018-07-11T11:46:38.120Z,23.6
2018-07-11T11:47:39.295Z,23.7
2018-07-11T11:48:40.450Z,23.7
2018-07-11T11:49:41.638Z,23.6
2018-07-11T11:50:42.804Z,23.7
2018-07-11T11:51:43.972Z,23.4
2018-07-11T11:52:45.128Z,22.8
2018-07-11T11:53:46.349Z,23.1
2018-07-11T11:54:47.735Z,23.3
2018-07-11T11:55:48.904Z,23.4
2018-07-11T11:56:50.073Z,23.3
2018-07-11T11:57:51.246Z,23.4
2018-07-11T11:58:52.397Z,23.4
2018-07-11T11:59:53.560Z,23.5
2018-07-11T12:00:54.704Z,23.6
2018-07-11T12:01:55.862Z,23.6
2018-07-11T12:02:57.052Z,23.5
2018-07-11T12:03:58.228Z,23.5
2018-07-11T12:04:59.409Z,23.5
2018-07-11T12:06:00.702Z,23.5
2018-07-11T12:07:03.084Z,23.4
2018-07-11T12:08:04.432Z,23.1
2018-07-11T12:09:06.248Z,23
2018-07-11T12:10:07.513Z,23.3
2018-07-11T12:11:08.696Z,23.5
2018-07-11T12:12:09.859Z,23.3
2018-07-11T12:13:11.066Z,23.4
2018-07-11T12:14:12.254Z,23.3
2018-07-11T12:15:13.466Z,23.4
2018-07-11T12:16:14.612Z,23.6
2018-07-11T12:17:15.814Z,23.5
2018-07-11T12:18:17.010Z,23.5
2018-07-11T12:19:18.224Z,23.5
2018-07-11T12:20:19.726Z,23.6
2018-07-11T12:21:20.938Z,23.3
2018-07-11T12:22:22.030Z,23.4
2018-07-11T12:23:23.201Z,23.5
2018-07-11T12:24:24.417Z,23.5
2018-07-11T12:25:25.769Z,23.4
2018-07-11T12:26:26.925Z,23.3
2018-07-11T12:27:28.074Z,22.8
2018-07-11T12:28:29.246Z,23.1
2018-07-11T12:29:30.410Z,23.2
2018-07-11T12:30:31.770Z,23.3
2018-07-11T12:31:33.051Z,23.3
2018-07-11T12:32:34.234Z,23.5
2018-07-11T12:33:35.459Z,23.2
2018-07-11T12:34:36.581Z,23.1
2018-07-11T12:35:37.826Z,23.4
2018-07-11T12:36:39.009Z,23.2
2018-07-11T12:37:40.169Z,23.2
2018-07-11T12:38:41.337Z,23.3
2018-07-11T12:39:44.968Z,23.2
2018-07-11T12:40:46.294Z,23.1
2018-07-11T12:41:47.457Z,23.2
2018-07-11T12:42:48.633Z,23
2018-07-11T12:43:49.801Z,23.1
2018-07-11T12:44:50.966Z,23.3
2018-07-11T12:45:52.157Z,23
2018-07-11T12:46:53.307Z,23
2018-07-11T12:47:54.467Z,22.7
2018-07-11T12:48:55.645Z,22.8
2018-07-11T12:49:56.859Z,23
2018-07-11T12:50:58.047Z,22.9
2018-07-11T12:51:59.203Z,22.8
2018-07-11T12:53:00.379Z,22.8
2018-07-11T12:54:01.570Z,23.1
2018-07-11T12:55:02.727Z,23
2018-07-11T12:56:03.932Z,23
2018-07-11T12:57:05.146Z,22.8
2018-07-11T12:58:06.387Z,23
2018-07-11T12:59:07.575Z,23.1
2018-07-11T13:00:08.740Z,23.3
2018-07-11T13:01:09.925Z,23.2
2018-07-11T13:02:11.076Z,23.1
2018-07-11T13:03:12.243Z,22.8
2018-07-11T13:04:13.437Z,23
2018-07-11T13:05:14.608Z,22.8
2018-07-11T13:06:15.865Z,22.9
2018-07-11T13:07:17.034Z,23
2018-07-11T13:08:18.213Z,22.8
2018-07-11T13:09:19.358Z,22.7
2018-07-11T13:10:20.504Z,22.9
2018-07-11T13:11:21.756Z,23.1
2018-07-11T13:12:22.925Z,22.8
2018-07-11T13:13:24.135Z,22.8
2018-07-11T13:14:25.304Z,22.8
2018-07-11T13:15:26.533Z,22.5
2018-07-11T13:16:27.735Z,22.2
2018-07-11T13:17:29.368Z,22.5
2018-07-11T13:18:30.666Z,22.6
2018-07-11T13:19:32.171Z,22.5
2018-07-11T13:20:34.097Z,22.7
2018-07-11T13:21:35.339Z,22.9
2018-07-11T13:22:36.462Z,22.8
2018-07-11T13:23:37.632Z,22.4
2018-07-11T13:24:38.797Z,22.7
2018-07-11T13:25:39.983Z,22.9
2018-07-11T13:26:41.387Z,22.8
2018-07-11T13:27:42.566Z,22.8
2018-07-11T13:28:43.986Z,22.3
2018-07-11T13:29:45.228Z,22.5
2018-07-11T13:30:46.451Z,22.5
2018-07-11T13:31:47.647Z,22.1
2018-07-11T13:32:48.871Z,21.8
2018-07-11T13:33:50.094Z,22
2018-07-11T13:34:51.249Z,22.1
2018-07-11T13:35:52.437Z,22.3
2018-07-11T13:36:53.625Z,22.2
2018-07-11T13:37:54.766Z,22.2
2018-07-11T13:38:55.989Z,22.2
2018-07-11T13:39:57.167Z,22.1